createdAt,value
2022-08-21T03:01:14.221Z,82.90
2022-08-21T03:03:45.415Z,82.90
2022-08-21T03:06:16.797Z,83.10
2022-08-21T03:08:46.104Z,83.40
2022-08-21T03:11:15.907Z,83.90
2022-08-21T03:13:44.313Z,84.10
2022-08-21T03:16:13.730Z,84.10
2022-08-21T03:18:41.605Z,83.90
2022-08-21T03:21:09.481Z,84.00
2022-08-21T03:23:40.591Z,84.20
2022-08-21T03:26:08.723Z,84.10
2022-08-21T03:28:36.966Z,84.30
2022-08-21T03:31:06.548Z,84.80
2022-08-21T03:33:35.771Z,85.10
2022-08-21T03:36:06.813Z,85.50
2022-08-21T03:38:36.024Z,85.30
2022-08-21T03:41:04.916Z,85.40
2022-08-21T03:43:33.747Z,85.30
2022-08-21T03:46:04.361Z,85.50
2022-08-21T03:48:32.702Z,85.70
2022-08-21T03:51:02.177Z,86.00
2022-08-21T03:53:31.110Z,86.40
2022-08-21T03:55:59.323Z,86.70
2022-08-21T03:58:29.283Z,86.70
2022-08-21T04:00:59.230Z,87.00
2022-08-21T04:03:28.738Z,87.10
2022-08-21T04:05:56.601Z,87.20
2022-08-21T04:08:25.906Z,87.50
2022-08-21T04:10:57.255Z,87.40
2022-08-21T04:13:25.175Z,87.60
2022-08-21T04:15:53.081Z,87.70
2022-08-21T04:18:20.974Z,87.70
2022-08-21T04:20:52.213Z,87.90
2022-08-21T04:23:23.873Z,87.90
2022-08-21T04:25:55.072Z,88.20
2022-08-21T04:28:23.628Z,88.90
2022-08-21T04:30:57.886Z,88.40
2022-08-21T04:33:26.258Z,88.30
2022-08-21T04:35:54.651Z,88.70
2022-08-21T04:38:22.931Z,88.90
2022-08-21T04:40:51.861Z,89.30
2022-08-21T04:43:22.415Z,89.60
2022-08-21T04:45:52.123Z,90.00
2022-08-21T04:48:22.170Z,90.10
2022-08-21T04:50:54.194Z,90.40
2022-08-21T04:53:26.323Z,90.60
2022-08-21T04:55:56.582Z,90.60
2022-08-21T04:58:28.251Z,90.80
2022-08-21T05:00:57.600Z,91.10
2022-08-21T05:03:26.122Z,91.20
2022-08-21T05:05:54.391Z,91.20
2022-08-21T05:08:25.120Z,91.50
2022-08-21T05:10:57.017Z,91.60
2022-08-21T05:13:29.284Z,91.80
2022-08-21T05:15:57.374Z,92.10
2022-08-21T05:18:25.289Z,92.40
2022-08-21T05:20:53.237Z,92.50
2022-08-21T05:23:21.143Z,92.80
2022-08-21T05:25:48.981Z,93.00
2022-08-21T05:28:16.833Z,93.10
2022-08-21T05:30:46.331Z,93.00
2022-08-21T05:33:14.197Z,93.10
2022-08-21T05:35:42.193Z,93.30
2022-08-21T05:38:18.133Z,93.60
2022-08-21T05:40:46.978Z,93.60
2022-08-21T05:43:14.947Z,93.20
2022-08-21T05:45:44.465Z,93.00
2022-08-21T05:48:16.050Z,93.00
2022-08-21T05:50:44.335Z,92.90
2022-08-21T05:53:13.369Z,92.90
2022-08-21T05:55:45.813Z,92.60
2022-08-21T05:58:15.837Z,92.50
2022-08-21T06:00:43.773Z,92.40
2022-08-21T06:03:18.513Z,92.20
2022-08-21T06:05:46.917Z,92.30
2022-08-21T06:08:15.107Z,92.50
2022-08-21T06:10:43.169Z,92.80
2022-08-21T06:13:11.765Z,92.90
2022-08-21T06:15:39.757Z,92.70
2022-08-21T06:18:09.458Z,92.60
2022-08-21T06:20:39.219Z,92.90
2022-08-21T06:23:07.123Z,93.10
2022-08-21T06:25:35.371Z,93.10
2022-08-21T06:28:04.494Z,93.40
2022-08-21T06:30:32.593Z,93.60
2022-08-21T06:33:00.970Z,93.80
2022-08-21T06:35:29.947Z,93.90
2022-08-21T06:37:59.610Z,94.00
2022-08-21T06:40:29.662Z,94.10
2022-08-21T06:42:58.507Z,94.50
2022-08-21T06:45:28.335Z,94.10
2022-08-21T06:48:00.734Z,93.60
2022-08-21T06:50:29.295Z,93.10
2022-08-21T06:53:05.529Z,92.80
2022-08-21T06:55:33.723Z,92.70
2022-08-21T06:58:02.325Z,92.30
2022-08-21T07:00:30.543Z,91.90
2022-08-21T07:02:59.310Z,91.80
2022-08-21T07:05:28.662Z,91.70
2022-08-21T07:07:56.544Z,91.10
2022-08-21T07:10:26.567Z,91.10
2022-08-21T07:13:00.394Z,91.00
2022-08-21T07:15:30.326Z,91.10
2022-08-21T07:17:59.299Z,91.10
2022-08-21T07:20:27.695Z,91.00
2022-08-21T07:22:55.964Z,90.60
2022-08-21T07:25:25.374Z,90.50
2022-08-21T07:27:53.233Z,90.10
2022-08-21T07:30:21.426Z,90.10
2022-08-21T07:32:50.251Z,89.60
2022-08-21T07:35:18.452Z,89.00
2022-08-21T07:37:46.389Z,89.20
2022-08-21T07:40:16.318Z,88.90
2022-08-21T07:42:47.528Z,88.70
2022-08-21T07:45:16.567Z,87.90
2022-08-21T07:47:44.700Z,88.20
2022-08-21T07:50:13.379Z,88.40
2022-08-21T07:52:42.534Z,87.30
2022-08-21T07:55:13.200Z,87.30
2022-08-21T07:57:41.659Z,87.40
2022-08-21T08:00:13.980Z,87.00
2022-08-21T08:02:42.582Z,86.90
2022-08-21T08:05:12.688Z,87.00
2022-08-21T08:07:40.789Z,86.80
2022-08-21T08:10:10.594Z,86.60
2022-08-21T08:12:40.560Z,86.60
2022-08-21T08:15:12.851Z,85.90
2022-08-21T08:17:40.785Z,85.40
2022-08-21T08:20:10.229Z,85.40
2022-08-21T08:22:39.920Z,86.30
2022-08-21T08:25:09.956Z,86.50
2022-08-21T08:27:38.560Z,86.60
2022-08-21T08:30:08.403Z,85.80
2022-08-21T08:32:37.662Z,86.00
2022-08-21T08:35:06.242Z,85.40
2022-08-21T08:37:34.951Z,84.90
2022-08-21T08:40:04.510Z,84.50
2022-08-21T08:42:35.717Z,84.50
2022-08-21T08:45:06.816Z,84.00
2022-08-21T08:47:39.784Z,84.50
2022-08-21T08:50:11.706Z,81.50
2022-08-21T08:52:45.123Z,80.70
2022-08-21T08:55:17.513Z,78.80
2022-08-21T08:57:49.994Z,78.90
2022-08-21T09:00:21.833Z,78.90
2022-08-21T09:02:55.004Z,78.40
2022-08-21T09:05:26.330Z,76.40
2022-08-21T09:08:18.915Z,76.60
2022-08-21T09:10:55.263Z,76.80
2022-08-21T09:13:33.387Z,75.90
2022-08-21T09:16:13.597Z,76.50
2022-08-21T09:18:53.446Z,73.90
2022-08-21T09:21:29.225Z,74.00
2022-08-21T09:24:01.975Z,74.00
2022-08-21T09:26:36.907Z,72.60
2022-08-21T09:29:06.143Z,72.50
2022-08-21T09:31:38.362Z,72.40
2022-08-21T09:34:10.088Z,71.50
2022-08-21T09:36:42.259Z,71.10
2022-08-21T09:39:12.334Z,71.20
2022-08-21T09:41:41.158Z,71.60
2022-08-21T09:44:10.705Z,71.00
2022-08-21T09:46:38.605Z,70.90
2022-08-21T09:49:14.871Z,70.70
2022-08-21T09:51:53.377Z,71.00
2022-08-21T09:54:27.003Z,69.20
2022-08-21T09:57:15.654Z,69.40
2022-08-21T09:59:44.986Z,68.80
2022-08-21T10:02:28.814Z,68.00
2022-08-21T10:05:01.058Z,68.30
2022-08-21T10:07:30.908Z,66.00
2022-08-21T10:10:05.518Z,66.10
2022-08-21T10:12:43.992Z,64.70
2022-08-21T10:15:21.255Z,65.10
2022-08-21T10:18:00.115Z,64.60
2022-08-21T10:20:37.589Z,64.00
2022-08-21T10:23:19.976Z,63.70
2022-08-21T10:25:57.191Z,62.80
2022-08-21T10:28:48.113Z,61.20
2022-08-21T10:31:26.414Z,61.00
2022-08-21T10:34:07.645Z,61.60
2022-08-21T10:36:45.089Z,61.10
2022-08-21T10:39:35.862Z,60.50
2022-08-21T10:42:28.515Z,60.40
2022-08-21T10:45:12.405Z,60.20
2022-08-21T10:47:47.165Z,59.50
2022-08-21T10:50:25.262Z,59.50
2022-08-21T10:53:11.074Z,57.50
2022-08-21T10:55:43.170Z,57.80
2022-08-21T10:58:13.261Z,57.50
2022-08-21T11:00:47.035Z,56.90
2022-08-21T11:03:19.452Z,56.80
2022-08-21T11:05:53.854Z,56.60
2022-08-21T11:08:28.142Z,56.80
2022-08-21T11:11:02.018Z,56.40
2022-08-21T11:13:41.283Z,56.20
2022-08-21T11:16:18.117Z,56.40
2022-08-21T11:18:51.125Z,55.70
2022-08-21T11:21:39.688Z,55.60
2022-08-21T11:24:24.361Z,56.40
2022-08-21T11:26:59.532Z,57.10
2022-08-21T11:29:31.307Z,56.70
2022-08-21T11:32:11.044Z,57.20
2022-08-21T11:34:51.499Z,57.60
2022-08-21T11:37:25.536Z,57.70
2022-08-21T11:40:02.359Z,56.40
2022-08-21T11:42:36.041Z,56.30
2022-08-21T11:45:15.853Z,56.40
2022-08-21T11:47:56.545Z,55.50
2022-08-21T11:50:35.184Z,55.80
2022-08-21T11:53:10.031Z,55.10
2022-08-21T11:55:44.485Z,54.70
2022-08-21T11:58:18.391Z,54.10
2022-08-21T12:00:51.904Z,53.30
2022-08-21T12:03:27.607Z,52.30
2022-08-21T12:05:59.898Z,51.00
2022-08-21T12:08:33.419Z,51.10
2022-08-21T12:11:07.016Z,50.50
2022-08-21T12:13:40.130Z,50.90
2022-08-21T12:16:10.689Z,50.60
2022-08-21T12:18:39.625Z,50.20
2022-08-21T12:21:22.452Z,49.70
2022-08-21T12:24:00.538Z,49.20
2022-08-21T12:26:32.526Z,48.40
2022-08-21T12:29:17.589Z,47.60
2022-08-21T12:31:56.579Z,47.60
2022-08-21T12:34:28.312Z,47.20
2022-08-21T12:37:00.922Z,47.60
2022-08-21T12:39:32.793Z,47.50
2022-08-21T12:42:07.278Z,46.80
2022-08-21T12:44:40.670Z,47.00
2022-08-21T12:47:16.918Z,46.10
2022-08-21T12:49:54.351Z,45.90
2022-08-21T12:52:25.087Z,47.10
2022-08-21T12:54:52.950Z,47.20
2022-08-21T12:57:24.292Z,48.00
2022-08-21T12:59:57.798Z,49.10
2022-08-21T13:02:30.261Z,49.40
2022-08-21T13:04:59.147Z,50.30
2022-08-21T13:07:30.514Z,50.20
2022-08-21T13:10:02.053Z,50.30
2022-08-21T13:12:32.866Z,50.50
2022-08-21T13:15:04.176Z,50.10
2022-08-21T13:17:40.359Z,50.20
2022-08-21T13:20:12.117Z,50.00
2022-08-21T13:22:44.908Z,50.20
2022-08-21T13:25:13.941Z,50.00
2022-08-21T13:27:48.904Z,49.90
2022-08-21T13:30:23.211Z,50.00
2022-08-21T13:32:54.509Z,48.80
2022-08-21T13:35:24.816Z,47.90
2022-08-21T13:37:53.407Z,47.00
2022-08-21T13:40:25.741Z,46.60
2022-08-21T13:42:55.758Z,46.30
2022-08-21T13:45:28.977Z,45.30
2022-08-21T13:47:57.787Z,45.00
2022-08-21T13:50:27.884Z,43.50
2022-08-21T13:53:02.554Z,42.80
2022-08-21T13:55:40.112Z,42.20
2022-08-21T13:58:10.277Z,42.40
2022-08-21T14:00:47.534Z,42.30
2022-08-21T14:03:27.798Z,41.90
2022-08-21T14:05:55.860Z,42.00
2022-08-21T14:08:30.169Z,41.80
2022-08-21T14:10:58.936Z,41.40
2022-08-21T14:13:38.178Z,41.60
2022-08-21T14:16:15.164Z,41.90
2022-08-21T14:18:48.434Z,41.40
2022-08-21T14:21:25.493Z,41.00
2022-08-21T14:24:07.012Z,40.20
2022-08-21T14:26:37.246Z,40.20
2022-08-21T14:29:10.833Z,41.70
2022-08-21T14:31:39.582Z,42.70
2022-08-21T14:34:19.360Z,43.40
2022-08-21T14:36:49.128Z,44.50
2022-08-21T14:39:17.353Z,43.70
2022-08-21T14:41:46.955Z,43.40
2022-08-21T14:44:16.862Z,43.40
2022-08-21T14:46:55.886Z,42.50
2022-08-21T14:49:28.292Z,41.70
2022-08-21T14:51:58.355Z,41.50
2022-08-21T14:54:31.220Z,40.70
2022-08-21T14:57:02.402Z,39.70
2022-08-21T14:59:33.012Z,39.90
2022-08-21T15:02:00.943Z,39.50
2022-08-21T15:04:28.902Z,39.60
2022-08-21T15:06:57.138Z,39.70
2022-08-21T15:09:25.658Z,39.90
2022-08-21T15:11:55.100Z,38.70
2022-08-21T15:14:26.574Z,39.60
2022-08-21T15:16:56.018Z,39.30
2022-08-21T15:19:24.222Z,38.90
2022-08-21T15:21:52.114Z,39.50
2022-08-21T15:24:20.351Z,40.20
2022-08-21T15:26:48.493Z,39.30
2022-08-21T15:29:22.490Z,39.10
2022-08-21T15:31:57.490Z,38.90
2022-08-21T15:34:27.161Z,38.80
2022-08-21T15:36:57.096Z,39.00
2022-08-21T15:39:30.186Z,39.40
2022-08-21T15:41:59.878Z,39.80
2022-08-21T15:44:31.552Z,40.50
2022-08-21T15:47:01.273Z,40.90
2022-08-21T15:49:29.191Z,41.60
2022-08-21T15:51:57.106Z,42.10
2022-08-21T15:54:25.083Z,42.30
2022-08-21T15:56:53.492Z,43.40
2022-08-21T15:59:23.633Z,43.10
2022-08-21T16:01:52.507Z,43.00
2022-08-21T16:04:24.967Z,44.00
2022-08-21T16:06:57.676Z,43.80
2022-08-21T16:09:29.997Z,44.00
2022-08-21T16:11:58.158Z,43.80
2022-08-21T16:14:26.100Z,43.60
2022-08-21T16:16:54.792Z,44.20
2022-08-21T16:19:24.290Z,43.90
2022-08-21T16:21:52.211Z,44.20
2022-08-21T16:24:20.076Z,44.30
2022-08-21T16:26:57.879Z,44.60
2022-08-21T16:29:28.735Z,44.50
2022-08-21T16:31:57.315Z,44.50
2022-08-21T16:34:27.729Z,44.80
2022-08-21T16:36:55.927Z,45.00
2022-08-21T16:39:23.995Z,45.20
2022-08-21T16:41:51.949Z,45.00
2022-08-21T16:44:20.750Z,45.20
2022-08-21T16:46:49.198Z,44.50
2022-08-21T16:49:17.074Z,44.50
2022-08-21T16:51:46.391Z,45.10
2022-08-21T16:54:14.842Z,45.90
2022-08-21T16:56:46.995Z,45.40
2022-08-21T16:59:17.509Z,45.60
2022-08-21T17:01:46.430Z,45.40
2022-08-21T17:04:14.539Z,45.00
2022-08-21T17:06:43.899Z,44.80
2022-08-21T17:09:13.349Z,45.10
2022-08-21T17:11:43.988Z,45.30
2022-08-21T17:14:14.856Z,45.60
2022-08-21T17:16:47.141Z,45.50
2022-08-21T17:19:15.681Z,45.50
2022-08-21T17:21:43.644Z,45.40
2022-08-21T17:24:15.333Z,45.80
2022-08-21T17:26:44.096Z,45.40
2022-08-21T17:29:14.520Z,45.30
2022-08-21T17:31:43.925Z,45.50
2022-08-21T17:34:12.801Z,45.60
2022-08-21T17:36:40.946Z,45.80
2022-08-21T17:39:09.838Z,46.20
2022-08-21T17:41:40.669Z,46.20
2022-08-21T17:44:15.347Z,46.90
2022-08-21T17:46:46.299Z,46.90
2022-08-21T17:49:15.866Z,47.10
2022-08-21T17:51:43.981Z,46.90
2022-08-21T17:54:11.889Z,46.80
2022-08-21T17:56:43.093Z,47.00
2022-08-21T17:59:11.504Z,47.20
2022-08-21T18:01:42.941Z,47.30
2022-08-21T18:04:11.462Z,47.60
2022-08-21T18:06:40.721Z,48.00
2022-08-21T18:09:09.542Z,48.10
2022-08-21T18:11:38.429Z,48.40
2022-08-21T18:14:08.223Z,48.50
2022-08-21T18:16:37.797Z,48.90
2022-08-21T18:19:09.817Z,48.70
2022-08-21T18:21:37.698Z,49.20
2022-08-21T18:24:06.232Z,48.80
2022-08-21T18:26:37.215Z,48.30
2022-08-21T18:29:09.702Z,48.40
2022-08-21T18:31:40.087Z,48.60
2022-08-21T18:34:18.273Z,48.70
2022-08-21T18:36:48.148Z,48.80
2022-08-21T18:39:35.559Z,48.70
2022-08-21T18:42:06.251Z,48.70
2022-08-21T18:44:35.818Z,49.60
2022-08-21T18:47:06.715Z,49.50
2022-08-21T18:49:35.373Z,49.10
2022-08-21T18:52:04.094Z,49.20
2022-08-21T18:54:32.057Z,49.40
2022-08-21T18:57:00.457Z,49.30
2022-08-21T18:59:35.734Z,49.50
2022-08-21T19:02:07.907Z,49.80
2022-08-21T19:07:25.339Z,50.00
2022-08-21T19:12:44.279Z,50.10
2022-08-21T19:15:15.927Z,50.30
2022-08-21T19:17:45.150Z,50.20
2022-08-21T19:20:30.231Z,50.20
2022-08-21T19:22:58.254Z,50.20
2022-08-21T19:25:33.460Z,50.50
2022-08-21T19:28:03.051Z,50.90
2022-08-21T19:30:32.447Z,51.40
2022-08-21T19:33:01.059Z,51.50
2022-08-21T19:35:29.530Z,51.80
2022-08-21T19:37:57.439Z,51.90
2022-08-21T19:40:25.528Z,52.00
2022-08-21T19:42:53.516Z,52.00
2022-08-21T19:45:21.911Z,51.70
2022-08-21T19:47:58.707Z,52.30
2022-08-21T19:50:27.191Z,52.20
2022-08-21T19:52:55.058Z,52.10
2022-08-21T19:55:23.433Z,52.20
2022-08-21T19:57:51.463Z,52.40
2022-08-21T20:00:19.514Z,52.90
2022-08-21T20:05:40.028Z,52.60
2022-08-21T20:08:11.802Z,52.90
2022-08-21T20:10:49.843Z,52.90
2022-08-21T20:13:21.458Z,52.80
2022-08-21T20:15:51.090Z,53.50
2022-08-21T20:18:20.192Z,54.00
2022-08-21T20:20:56.238Z,54.60
2022-08-21T20:23:30.160Z,54.90
2022-08-21T20:25:58.901Z,55.10
2022-08-21T20:28:27.043Z,55.20
2022-08-21T20:30:57.038Z,55.30
2022-08-21T20:33:25.186Z,55.30
2022-08-21T20:35:53.433Z,56.10
2022-08-21T20:38:23.105Z,56.60
2022-08-21T20:40:54.361Z,57.10
2022-08-21T20:43:23.021Z,57.70
2022-08-21T20:45:51.386Z,57.80
2022-08-21T20:48:27.757Z,57.40
2022-08-21T20:51:01.621Z,56.90
2022-08-21T20:53:43.565Z,56.70
2022-08-21T20:56:17.965Z,56.30
2022-08-21T20:58:53.180Z,56.20
2022-08-21T21:01:22.391Z,55.40
2022-08-21T21:03:55.016Z,55.40
2022-08-21T21:06:26.810Z,55.50
2022-08-21T21:09:04.567Z,55.20
2022-08-21T21:11:38.332Z,55.20
2022-08-21T21:14:11.383Z,55.40
2022-08-21T21:16:50.685Z,55.50
2022-08-21T21:19:27.159Z,55.00
2022-08-21T21:22:01.354Z,54.70
2022-08-21T21:24:36.825Z,54.50
2022-08-21T21:27:11.925Z,54.70
2022-08-21T21:29:44.827Z,54.70
